createdAt,value
2022-09-17T00:01:23.338Z,85.01
2022-09-17T00:03:52.764Z,84.77
2022-09-17T00:06:20.981Z,85.24
2022-09-17T00:08:49.362Z,86.62
2022-09-17T00:11:21.193Z,86.11
2022-09-17T00:13:50.367Z,85.24
2022-09-17T00:16:38.578Z,85.05
2022-09-17T00:19:08.665Z,85.39
2022-09-17T00:21:37.123Z,84.68
2022-09-17T00:24:06.222Z,84.09
2022-09-17T00:26:34.729Z,83.80
2022-09-17T00:29:02.965Z,84.35
2022-09-17T00:31:31.526Z,84.61
2022-09-17T00:34:00.459Z,84.45
2022-09-17T00:36:28.683Z,84.36
2022-09-17T00:38:58.054Z,83.88
2022-09-17T00:41:27.854Z,82.96
2022-09-17T00:43:58.067Z,81.92
2022-09-17T00:46:29.491Z,82.56
2022-09-17T00:48:59.141Z,83.14
2022-09-17T00:51:36.226Z,82.53
2022-09-17T00:54:07.111Z,82.61
2022-09-17T00:56:36.060Z,82.26
2022-09-17T00:59:04.071Z,81.84
2022-09-17T01:01:32.661Z,81.94
2022-09-17T01:04:00.687Z,81.36
2022-09-17T01:06:28.659Z,80.94
2022-09-17T01:09:02.569Z,80.43
2022-09-17T01:11:48.872Z,79.95
2022-09-17T01:14:20.733Z,79.13
2022-09-17T01:16:55.570Z,76.23
2022-09-17T01:19:43.093Z,75.17
2022-09-17T01:22:31.240Z,74.21
2022-09-17T01:25:17.661Z,73.71
2022-09-17T01:28:04.186Z,72.24
2022-09-17T01:30:51.165Z,71.99
2022-09-17T01:33:25.206Z,72.34
2022-09-17T01:36:18.219Z,72.36
2022-09-17T01:38:46.163Z,72.51
2022-09-17T01:41:16.960Z,72.72
2022-09-17T01:43:54.437Z,73.55
2022-09-17T01:46:24.939Z,73.70
2022-09-17T01:48:57.163Z,74.70
2022-09-17T01:51:26.877Z,74.71
2022-09-17T01:54:05.881Z,74.81
2022-09-17T01:56:37.096Z,75.78
2022-09-17T01:59:09.731Z,75.66
2022-09-17T02:01:39.570Z,76.23
2022-09-17T02:04:15.138Z,75.79
2022-09-17T02:06:45.636Z,75.52
2022-09-17T02:09:35.998Z,75.86
2022-09-17T02:12:08.409Z,76.18
2022-09-17T02:14:38.804Z,75.65
2022-09-17T02:17:17.012Z,75.97
2022-09-17T02:19:46.108Z,74.69
2022-09-17T02:22:17.078Z,75.78
2022-09-17T02:24:54.660Z,77.16
2022-09-17T02:27:42.098Z,76.80
2022-09-17T02:30:12.136Z,77.89
2022-09-17T02:32:40.392Z,78.88
2022-09-17T02:35:09.365Z,78.75
2022-09-17T02:37:37.438Z,80.71
2022-09-17T02:40:06.760Z,80.17
2022-09-17T02:42:44.132Z,79.97
2022-09-17T02:45:23.776Z,80.48
2022-09-17T02:47:51.679Z,80.09
2022-09-17T02:50:46.141Z,81.08
2022-09-17T02:53:23.849Z,80.45
2022-09-17T02:56:18.330Z,80.05
2022-09-17T02:58:56.644Z,80.03
2022-09-17T03:01:39.398Z,79.52
2022-09-17T03:04:09.150Z,79.39
2022-09-17T03:06:38.703Z,79.53
2022-09-17T03:09:08.340Z,80.23
2022-09-17T03:11:37.798Z,79.32
2022-09-17T03:14:05.986Z,79.24
2022-09-17T03:16:34.140Z,80.76
2022-09-17T03:19:02.530Z,82.76
2022-09-17T03:21:31.354Z,82.48
2022-09-17T03:24:00.519Z,82.32
2022-09-17T03:26:28.696Z,83.03
2022-09-17T03:28:57.597Z,82.83
2022-09-17T03:31:25.543Z,83.80
2022-09-17T03:33:53.658Z,83.01
2022-09-17T03:36:21.629Z,84.10
2022-09-17T03:38:49.678Z,85.25
2022-09-17T03:41:18.262Z,86.34
2022-09-17T03:43:46.336Z,86.44
2022-09-17T03:46:14.657Z,86.44
2022-09-17T03:48:42.788Z,85.40
2022-09-17T03:51:10.718Z,84.75
2022-09-17T03:53:38.938Z,84.88
2022-09-17T03:56:07.321Z,85.03
2022-09-17T03:58:35.425Z,85.02
2022-09-17T04:01:04.821Z,84.71
2022-09-17T04:03:33.175Z,85.37
2022-09-17T04:06:01.145Z,86.67
2022-09-17T04:08:29.331Z,87.20
2022-09-17T04:10:57.256Z,86.39
2022-09-17T04:13:25.265Z,86.02
2022-09-17T04:15:53.300Z,85.92
2022-09-17T04:18:21.517Z,86.09
2022-09-17T04:20:49.689Z,85.02
2022-09-17T04:23:17.666Z,85.22
2022-09-17T04:25:45.519Z,85.52
2022-09-17T04:28:13.907Z,85.41
2022-09-17T04:30:43.537Z,85.03
2022-09-17T04:33:11.840Z,84.09
2022-09-17T04:35:39.704Z,85.22
2022-09-17T04:38:07.954Z,86.46
2022-09-17T04:40:35.935Z,86.23
2022-09-17T04:43:04.296Z,86.16
2022-09-17T04:45:33.793Z,86.58
2022-09-17T04:48:02.184Z,86.25
2022-09-17T04:50:30.132Z,88.01
2022-09-17T04:52:58.639Z,87.68
2022-09-17T04:55:28.039Z,86.50
2022-09-17T04:57:56.180Z,84.20
2022-09-17T05:00:24.802Z,83.46
2022-09-17T05:02:54.102Z,83.93
2022-09-17T05:05:22.506Z,83.90
2022-09-17T05:07:50.768Z,83.25
2022-09-17T05:10:20.131Z,83.24
2022-09-17T05:12:49.477Z,85.71
2022-09-17T05:15:17.951Z,86.12
2022-09-17T05:17:46.177Z,87.82
2022-09-17T05:20:14.814Z,87.13
2022-09-17T05:22:50.091Z,87.84
2022-09-17T05:25:19.521Z,86.27
2022-09-17T05:27:48.488Z,86.14
2022-09-17T05:30:16.632Z,85.13
2022-09-17T05:32:44.818Z,84.46
2022-09-17T05:35:12.879Z,86.19
2022-09-17T05:37:40.796Z,86.69
2022-09-17T05:40:09.319Z,86.45
2022-09-17T05:42:37.555Z,87.83
2022-09-17T05:45:06.241Z,87.50
2022-09-17T05:47:35.603Z,88.47
2022-09-17T05:50:03.900Z,87.25
2022-09-17T05:52:31.953Z,85.68
2022-09-17T05:54:59.877Z,85.68
2022-09-17T05:57:29.737Z,85.37
2022-09-17T05:59:57.592Z,85.11
2022-09-17T06:02:25.592Z,85.13
2022-09-17T06:04:53.650Z,86.39
2022-09-17T06:07:21.568Z,87.10
2022-09-17T06:09:49.592Z,88.10
2022-09-17T06:12:17.628Z,86.10
2022-09-17T06:14:45.639Z,86.77
2022-09-17T06:17:13.810Z,86.97
2022-09-17T06:19:42.624Z,87.02
2022-09-17T06:22:10.674Z,86.29
2022-09-17T06:24:38.788Z,85.21
2022-09-17T06:27:06.666Z,84.84
2022-09-17T06:29:34.792Z,85.28
2022-09-17T06:32:03.005Z,85.48
2022-09-17T06:34:30.936Z,85.05
2022-09-17T06:36:58.943Z,85.33
2022-09-17T06:39:26.880Z,86.48
2022-09-17T06:41:54.854Z,87.00
2022-09-17T06:44:22.925Z,86.38
2022-09-17T06:46:51.362Z,87.11
2022-09-17T06:49:19.608Z,87.15
2022-09-17T06:51:47.658Z,86.27
2022-09-17T06:54:15.834Z,87.07
2022-09-17T06:56:46.060Z,86.15
2022-09-17T06:59:14.231Z,85.81
2022-09-17T07:01:43.072Z,86.97
2022-09-17T07:04:10.996Z,88.17
2022-09-17T07:06:39.006Z,88.11
2022-09-17T07:09:10.841Z,87.21
2022-09-17T07:11:39.821Z,86.96
2022-09-17T07:14:08.050Z,87.12
2022-09-17T07:16:36.958Z,86.83
2022-09-17T07:19:05.532Z,86.56
2022-09-17T07:21:33.455Z,86.43
2022-09-17T07:24:01.614Z,87.16
2022-09-17T07:26:29.536Z,85.53
2022-09-17T07:28:57.612Z,84.55
2022-09-17T07:31:25.704Z,84.87
2022-09-17T07:33:53.815Z,84.49
2022-09-17T07:36:21.784Z,85.95
2022-09-17T07:38:49.695Z,85.89
2022-09-17T07:41:18.035Z,84.68
2022-09-17T07:43:45.954Z,84.49
2022-09-17T07:46:17.791Z,84.33
2022-09-17T07:48:46.861Z,83.11
2022-09-17T07:51:18.760Z,83.79
2022-09-17T07:53:48.050Z,84.31
2022-09-17T07:56:16.409Z,83.56
2022-09-17T07:58:44.315Z,82.52
2022-09-17T08:01:13.268Z,82.34
2022-09-17T08:03:41.342Z,81.74
2022-09-17T08:06:13.726Z,81.22
2022-09-17T08:08:42.412Z,80.16
2022-09-17T08:11:11.553Z,79.89
2022-09-17T08:13:40.290Z,78.46
2022-09-17T08:16:09.759Z,78.54
2022-09-17T08:18:37.872Z,78.13
2022-09-17T08:21:07.170Z,77.72
2022-09-17T08:23:36.207Z,78.25
2022-09-17T08:26:06.394Z,77.81
2022-09-17T08:28:35.805Z,78.18
2022-09-17T08:31:06.124Z,77.69
2022-09-17T08:33:39.428Z,78.29
2022-09-17T08:36:08.823Z,78.66
2022-09-17T08:38:38.361Z,77.16
2022-09-17T08:41:10.093Z,76.17
2022-09-17T08:43:37.942Z,76.91
2022-09-17T08:46:09.452Z,75.81
2022-09-17T08:48:47.255Z,74.89
2022-09-17T08:51:21.431Z,73.82
2022-09-17T08:54:10.311Z,74.86
2022-09-17T08:56:38.875Z,74.91
2022-09-17T08:59:21.520Z,74.85
2022-09-17T09:02:00.953Z,74.79
2022-09-17T09:04:50.304Z,76.00
2022-09-17T09:07:21.247Z,75.23
2022-09-17T09:10:00.478Z,74.49
2022-09-17T09:12:31.359Z,73.94
2022-09-17T09:15:04.742Z,73.09
2022-09-17T09:17:38.727Z,72.81
2022-09-17T09:20:12.410Z,72.74
2022-09-17T09:22:43.529Z,72.26
2022-09-17T09:25:28.829Z,72.04
2022-09-17T09:28:02.684Z,72.36
2022-09-17T09:30:50.865Z,72.16
2022-09-17T09:33:26.401Z,73.23
2022-09-17T09:35:54.532Z,72.35
2022-09-17T09:38:34.167Z,70.68
2022-09-17T09:41:05.465Z,69.99
2022-09-17T09:44:03.597Z,69.04
2022-09-17T09:46:48.003Z,69.65
2022-09-17T09:49:34.786Z,69.42
2022-09-17T09:52:03.562Z,68.86
2022-09-17T09:54:50.494Z,68.61
2022-09-17T09:57:22.714Z,68.52
2022-09-17T09:59:50.744Z,69.31
2022-09-17T10:02:18.768Z,69.28
2022-09-17T10:04:49.232Z,69.51
2022-09-17T10:07:20.722Z,70.44
2022-09-17T10:09:48.645Z,69.66
2022-09-17T10:12:17.679Z,70.15
2022-09-17T10:14:46.455Z,68.93
2022-09-17T10:17:19.732Z,69.29
2022-09-17T10:20:09.629Z,69.30
2022-09-17T10:22:39.937Z,69.25
2022-09-17T10:25:21.323Z,69.02
2022-09-17T10:27:49.540Z,68.10
2022-09-17T10:30:19.215Z,68.02
2022-09-17T10:33:05.920Z,67.95
2022-09-17T10:35:34.300Z,67.70
2022-09-17T10:38:02.293Z,67.35
2022-09-17T10:40:31.770Z,66.54
2022-09-17T10:43:32.460Z,66.11
2022-09-17T10:46:00.920Z,66.32
2022-09-17T10:48:32.860Z,65.27
2022-09-17T10:51:03.476Z,64.57
2022-09-17T10:53:31.468Z,64.72
2022-09-17T10:56:15.570Z,63.90
2022-09-17T10:58:43.488Z,64.25
2022-09-17T11:01:26.169Z,65.68
2022-09-17T11:04:06.463Z,65.61
2022-09-17T11:06:44.164Z,65.42
2022-09-17T11:09:47.892Z,65.83
2022-09-17T11:12:15.751Z,66.96
2022-09-17T11:14:49.756Z,67.84
2022-09-17T11:17:36.668Z,68.77
2022-09-17T11:20:08.320Z,69.93
2022-09-17T11:22:36.296Z,68.96
2022-09-17T11:25:07.441Z,68.62
2022-09-17T11:27:40.677Z,68.51
2022-09-17T11:30:14.485Z,68.55
2022-09-17T11:33:08.731Z,69.89
2022-09-17T11:35:39.776Z,69.54
2022-09-17T11:38:23.107Z,70.61
2022-09-17T11:41:00.001Z,70.94
2022-09-17T11:43:34.266Z,70.60
2022-09-17T11:46:02.276Z,70.30
2022-09-17T11:48:35.265Z,69.16
2022-09-17T11:51:07.051Z,68.64
2022-09-17T11:53:38.274Z,69.12
2022-09-17T11:56:16.839Z,68.23
2022-09-17T11:58:56.919Z,66.95
2022-09-17T12:01:24.740Z,66.63
2022-09-17T12:03:59.474Z,69.31
2022-09-17T12:06:40.573Z,71.69
2022-09-17T12:09:17.607Z,71.41
2022-09-17T12:11:59.605Z,70.85
2022-09-17T12:14:50.832Z,70.34
2022-09-17T12:17:24.056Z,70.24
2022-09-17T12:19:57.979Z,70.44
2022-09-17T12:22:40.113Z,70.58
2022-09-17T12:25:14.966Z,70.72
2022-09-17T12:27:45.851Z,70.49
2022-09-17T12:30:13.803Z,70.89
2022-09-17T12:32:41.974Z,70.35
2022-09-17T12:35:12.681Z,70.70
2022-09-17T12:37:47.939Z,70.31
2022-09-17T12:40:26.579Z,69.99
2022-09-17T12:43:17.966Z,69.38
2022-09-17T12:46:08.945Z,67.97
2022-09-17T12:49:01.421Z,67.50
2022-09-17T12:51:35.195Z,66.87
2022-09-17T12:54:22.041Z,67.22
2022-09-17T12:57:04.014Z,66.99
2022-09-17T12:59:34.509Z,66.86
2022-09-17T13:02:04.749Z,66.60
2022-09-17T13:05:00.142Z,66.52
2022-09-17T13:07:38.218Z,67.37
2022-09-17T13:10:15.341Z,67.03
2022-09-17T13:12:49.521Z,67.17
2022-09-17T13:15:28.756Z,65.74
2022-09-17T13:18:23.642Z,64.85
2022-09-17T13:20:53.986Z,65.39
2022-09-17T13:23:34.347Z,63.54
2022-09-17T13:26:05.868Z,63.46
2022-09-17T13:28:47.834Z,64.45
2022-09-17T13:31:21.878Z,65.06
2022-09-17T13:33:51.333Z,63.85
2022-09-17T13:36:41.072Z,63.76
2022-09-17T13:39:28.889Z,63.76
2022-09-17T13:42:15.443Z,64.27
2022-09-17T13:44:46.213Z,63.90
2022-09-17T13:47:17.324Z,62.62
2022-09-17T13:49:51.444Z,63.37
2022-09-17T13:52:32.517Z,64.52
2022-09-17T13:55:01.532Z,64.68
2022-09-17T13:57:30.096Z,64.48
2022-09-17T13:59:59.151Z,64.65
2022-09-17T14:02:32.409Z,64.87
2022-09-17T14:05:19.437Z,64.75
2022-09-17T14:07:49.833Z,64.54
2022-09-17T14:10:18.009Z,65.38
2022-09-17T14:12:49.898Z,65.09
2022-09-17T14:15:36.789Z,65.19
2022-09-17T14:18:23.499Z,65.04
2022-09-17T14:20:53.721Z,65.44
2022-09-17T14:23:22.003Z,65.56
2022-09-17T14:25:52.603Z,65.21
2022-09-17T14:28:39.651Z,65.50
2022-09-17T14:31:17.191Z,65.70
2022-09-17T14:33:45.542Z,65.96
2022-09-17T14:36:18.525Z,66.04
2022-09-17T14:38:51.489Z,66.03
2022-09-17T14:41:25.412Z,66.97
2022-09-17T14:43:53.303Z,66.77
2022-09-17T14:46:24.151Z,66.57
2022-09-17T14:48:52.318Z,66.70
2022-09-17T14:51:20.676Z,66.68
2022-09-17T14:53:50.388Z,66.68
2022-09-17T14:56:20.722Z,66.91
2022-09-17T14:58:50.994Z,67.47
2022-09-17T15:01:21.796Z,67.97
2022-09-17T15:03:50.400Z,69.06
2022-09-17T15:06:21.932Z,69.51
2022-09-17T15:08:49.841Z,70.07
2022-09-17T15:11:17.762Z,70.62
2022-09-17T15:13:50.924Z,71.71
2022-09-17T15:16:30.798Z,72.42
2022-09-17T15:18:59.964Z,72.94
2022-09-17T15:21:31.655Z,72.74
2022-09-17T15:24:07.600Z,73.46
2022-09-17T15:26:40.037Z,75.32
2022-09-17T15:29:10.332Z,76.04
2022-09-17T15:31:38.629Z,77.33
2022-09-17T15:34:06.982Z,76.29
2022-09-17T15:36:34.830Z,76.20
2022-09-17T15:39:22.677Z,75.62
2022-09-17T15:41:56.960Z,76.73
2022-09-17T15:44:30.461Z,76.27
2022-09-17T15:47:18.234Z,76.66
2022-09-17T15:50:04.129Z,76.52
2022-09-17T15:52:34.898Z,76.72
2022-09-17T15:55:02.832Z,76.21
2022-09-17T15:57:31.827Z,76.44
2022-09-17T16:00:16.075Z,77.71
2022-09-17T16:02:44.180Z,79.73
2022-09-17T16:05:18.369Z,79.04
2022-09-17T16:07:46.463Z,78.56
2022-09-17T16:10:15.378Z,78.27
2022-09-17T16:12:44.136Z,78.86
2022-09-17T16:15:13.599Z,79.24
2022-09-17T16:17:41.501Z,79.39
2022-09-17T16:20:10.104Z,79.27
2022-09-17T16:22:38.077Z,79.79
2022-09-17T16:25:06.232Z,80.74
2022-09-17T16:27:40.324Z,80.75
2022-09-17T16:30:09.554Z,80.72
2022-09-17T16:32:38.152Z,81.27
2022-09-17T16:35:06.416Z,80.76
2022-09-17T16:37:34.484Z,80.47
2022-09-17T16:40:02.882Z,80.52
2022-09-17T16:42:31.904Z,80.53
2022-09-17T16:45:01.365Z,80.87
2022-09-17T16:47:31.558Z,80.62
2022-09-17T16:49:59.383Z,81.34
2022-09-17T16:52:27.520Z,81.72
2022-09-17T16:54:55.441Z,81.76
2022-09-17T16:57:23.371Z,81.81
2022-09-17T16:59:51.383Z,81.55
2022-09-17T17:02:19.284Z,81.63
2022-09-17T17:04:47.594Z,81.63
2022-09-17T17:07:15.575Z,81.56
2022-09-17T17:09:43.635Z,81.10
2022-09-17T17:12:12.171Z,81.37
2022-09-17T17:14:40.020Z,81.36
2022-09-17T17:17:07.920Z,81.09
2022-09-17T17:19:36.879Z,80.69
2022-09-17T17:22:07.176Z,80.77
2022-09-17T17:24:35.178Z,80.97
2022-09-17T17:27:03.938Z,80.96
2022-09-17T17:29:31.957Z,81.48
2022-09-17T17:31:59.818Z,81.84
2022-09-17T17:34:27.954Z,81.33
2022-09-17T17:36:55.860Z,81.13
2022-09-17T17:39:23.691Z,81.43
2022-09-17T17:41:54.400Z,82.52
2022-09-17T17:44:22.402Z,83.07
2022-09-17T17:46:50.641Z,84.02
2022-09-17T17:49:18.747Z,84.06
2022-09-17T17:51:48.062Z,83.74
2022-09-17T17:54:16.123Z,83.77
2022-09-17T17:56:44.101Z,84.28
2022-09-17T17:59:12.168Z,84.51
2022-09-17T18:01:40.258Z,85.96
2022-09-17T18:04:08.735Z,87.68
2022-09-17T18:06:36.758Z,87.52
2022-09-17T18:09:05.999Z,87.15
2022-09-17T18:11:34.891Z,87.50
2022-09-17T18:14:03.475Z,88.18
2022-09-17T18:16:31.708Z,87.93
2022-09-17T18:19:00.286Z,88.42
2022-09-17T18:21:28.412Z,89.13
2022-09-17T18:23:56.486Z,91.42
2022-09-17T18:26:26.428Z,92.93
2022-09-17T18:28:54.986Z,93.53
2022-09-17T18:31:24.780Z,92.05
2022-09-17T18:33:57.831Z,91.06
2022-09-17T18:36:26.988Z,90.74
2022-09-17T18:39:03.533Z,90.38
2022-09-17T18:41:40.917Z,89.72
2022-09-17T18:44:09.555Z,89.38
2022-09-17T18:46:38.218Z,89.04
2022-09-17T18:49:06.401Z,89.86
2022-09-17T18:51:34.474Z,90.48
2022-09-17T18:54:03.983Z,91.04
2022-09-17T18:56:35.998Z,91.85
2022-09-17T18:59:07.894Z,92.35
2022-09-17T19:01:36.755Z,93.28
2022-09-17T19:04:07.789Z,93.63
2022-09-17T19:06:36.238Z,93.24
2022-09-17T19:09:05.194Z,92.81
2022-09-17T19:11:34.557Z,92.73
2022-09-17T19:14:02.494Z,91.97
2022-09-17T19:16:30.598Z,91.64
2022-09-17T19:18:58.653Z,91.66
2022-09-17T19:21:26.784Z,91.83
2022-09-17T19:23:54.913Z,91.31
2022-09-17T19:26:27.197Z,91.02
2022-09-17T19:28:57.909Z,91.12
2022-09-17T19:31:27.042Z,91.79
2022-09-17T19:33:55.688Z,91.06
2022-09-17T19:36:23.781Z,90.95
2022-09-17T19:38:51.932Z,91.91
2022-09-17T19:41:23.392Z,92.45
2022-09-17T19:43:55.270Z,92.91
2022-09-17T19:46:24.471Z,93.18
2022-09-17T19:48:56.513Z,93.49
2022-09-17T19:51:26.247Z,93.18
2022-09-17T19:53:54.106Z,92.21
2022-09-17T19:56:23.562Z,91.25
2022-09-17T19:58:52.375Z,91.36
2022-09-17T20:01:20.920Z,91.49
2022-09-17T20:03:49.375Z,92.00
2022-09-17T20:06:18.555Z,93.22
2022-09-17T20:08:51.521Z,93.76
2022-09-17T20:11:20.929Z,94.00
2022-09-17T20:13:49.087Z,92.75
2022-09-17T20:16:18.993Z,92.02
2022-09-17T20:18:47.525Z,91.73
2022-09-17T20:21:16.839Z,91.28
2022-09-17T20:23:44.739Z,91.09
2022-09-17T20:26:13.210Z,91.38
2022-09-17T20:28:41.769Z,91.49
2022-09-17T20:31:14.275Z,92.09
2022-09-17T20:33:42.622Z,93.11
2022-09-17T20:36:11.803Z,92.64
2022-09-17T20:41:29.184Z,92.90
2022-09-17T20:43:57.057Z,92.91
2022-09-17T20:46:28.898Z,93.06
2022-09-17T20:48:58.644Z,92.76
2022-09-17T20:51:28.006Z,91.72
2022-09-17T20:53:57.545Z,91.28
2022-09-17T20:56:27.343Z,91.20
2022-09-17T20:59:04.084Z,91.75
2022-09-17T21:01:33.022Z,92.12
2022-09-17T21:04:01.885Z,92.82
2022-09-17T21:06:31.403Z,92.86
2022-09-17T21:09:03.536Z,93.03
2022-09-17T21:11:32.261Z,92.84
2022-09-17T21:14:00.750Z,92.92
2022-09-17T21:16:29.412Z,93.15
2022-09-17T21:18:58.688Z,92.38
2022-09-17T21:21:27.008Z,92.25
2022-09-17T21:23:55.114Z,92.49
2022-09-17T21:26:24.169Z,92.60
2022-09-17T21:28:52.896Z,92.94
2022-09-17T21:31:29.633Z,93.55
2022-09-17T21:34:04.682Z,93.42
2022-09-17T21:36:34.312Z,93.34
2022-09-17T21:39:04.551Z,94.08
2022-09-17T21:41:32.592Z,93.83
2022-09-17T21:44:00.672Z,93.12
2022-09-17T21:46:30.048Z,92.60
2022-09-17T21:49:02.651Z,92.79
2022-09-17T21:51:34.209Z,93.04
2022-09-17T21:54:04.013Z,93.95
2022-09-17T21:56:33.016Z,94.75
2022-09-17T21:59:02.533Z,94.56
2022-09-17T22:01:32.124Z,93.74
2022-09-17T22:04:02.210Z,93.31
2022-09-17T22:06:31.041Z,93.62
2022-09-17T22:09:00.320Z,93.63
2022-09-17T22:11:32.790Z,92.74
2022-09-17T22:14:05.406Z,92.22
2022-09-17T22:16:36.050Z,93.19
2022-09-17T22:19:05.063Z,93.17
2022-09-17T22:21:34.327Z,92.87
2022-09-17T22:24:03.287Z,92.61
2022-09-17T22:26:32.648Z,93.79
2022-09-17T22:29:01.623Z,93.74
2022-09-17T22:31:29.843Z,93.24
2022-09-17T22:33:58.288Z,93.28
2022-09-17T22:36:26.758Z,93.28
2022-09-17T22:38:56.910Z,94.39
2022-09-17T22:41:25.166Z,94.10
2022-09-17T22:43:54.663Z,93.88
2022-09-17T22:46:24.457Z,93.44
2022-09-17T22:48:52.667Z,93.97
2022-09-17T22:51:20.681Z,93.10
2022-09-17T22:53:48.801Z,92.49
2022-09-17T22:56:18.307Z,92.28
2022-09-17T22:58:46.803Z,92.83
2022-09-17T23:01:16.764Z,92.57
2022-09-17T23:03:45.662Z,92.02
2022-09-17T23:06:14.901Z,92.12
2022-09-17T23:08:43.282Z,92.37
2022-09-17T23:11:19.240Z,92.78
2022-09-17T23:13:48.551Z,92.59
2022-09-17T23:16:17.482Z,92.35
2022-09-17T23:18:46.050Z,92.40
2022-09-17T23:21:16.757Z,92.31
2022-09-17T23:23:49.228Z,92.18
2022-09-17T23:26:21.493Z,92.07
2022-09-17T23:28:50.707Z,92.73
2022-09-17T23:31:22.153Z,91.87
2022-09-17T23:33:50.907Z,92.12
2022-09-17T23:36:20.966Z,92.08
2022-09-17T23:38:49.756Z,92.47
2022-09-17T23:41:22.265Z,92.29
2022-09-17T23:43:51.452Z,92.59
2022-09-17T23:46:20.337Z,92.82
2022-09-17T23:48:49.130Z,93.37
2022-09-17T23:51:17.107Z,93.51
2022-09-17T23:53:45.501Z,93.17
2022-09-17T23:56:15.107Z,93.51
2022-09-17T23:58:43.176Z,93.69
